sensor_id;sensor_type;location;lat;lon;timestamp;pressure;altitude;pressure_sealevel;temperature;humidity
69980;BME280;57318;56.232;43.944;2023-07-24T00:00:45;98311.06;;;15.21;80.13
69980;BME280;57318;56.232;43.944;2023-07-24T00:03:11;98311.88;;;15.21;80.06
69980;BME280;57318;56.232;43.944;2023-07-24T00:05:37;98309.75;;;15.16;79.25
69980;BME280;57318;56.232;43.944;2023-07-24T00:08:02;98302.25;;;15.12;79.12
69980;BME280;57318;56.232;43.944;2023-07-24T00:10:31;98306.31;;;15.08;78.74
69980;BME280;57318;56.232;43.944;2023-07-24T00:12:56;98310.00;;;15.07;78.87
69980;BME280;57318;56.232;43.944;2023-07-24T00:15:22;98309.34;;;15.05;78.90
69980;BME280;57318;56.232;43.944;2023-07-24T00:17:48;98304.19;;;15.03;78.94
69980;BME280;57318;56.232;43.944;2023-07-24T00:20:14;98309.91;;;15.00;78.93
69980;BME280;57318;56.232;43.944;2023-07-24T00:22:40;98308.41;;;14.97;78.94
69980;BME280;57318;56.232;43.944;2023-07-24T00:25:06;98305.72;;;14.97;79.13
69980;BME280;57318;56.232;43.944;2023-07-24T00:27:32;98307.56;;;14.97;79.32
69980;BME280;57318;56.232;43.944;2023-07-24T00:29:57;98304.09;;;14.96;79.44
69980;BME280;57318;56.232;43.944;2023-07-24T00:32:23;98307.75;;;14.95;79.71
69980;BME280;57318;56.232;43.944;2023-07-24T00:34:49;98306.94;;;14.95;79.62
69980;BME280;57318;56.232;43.944;2023-07-24T00:37:15;98306.25;;;14.93;79.68
69980;BME280;57318;56.232;43.944;2023-07-24T00:39:40;98297.59;;;14.91;79.58
69980;BME280;57318;56.232;43.944;2023-07-24T00:42:06;98287.06;;;14.89;79.62
69980;BME280;57318;56.232;43.944;2023-07-24T00:44:32;98290.38;;;14.91;79.66
69980;BME280;57318;56.232;43.944;2023-07-24T00:46:57;98285.03;;;14.91;79.50
69980;BME280;57318;56.232;43.944;2023-07-24T00:49:23;98285.03;;;14.91;79.40
69980;BME280;57318;56.232;43.944;2023-07-24T00:51:50;98294.09;;;14.90;79.22
69980;BME280;57318;56.232;43.944;2023-07-24T00:54:18;98291.59;;;14.89;79.39
69980;BME280;57318;56.232;43.944;2023-07-24T00:56:45;98292.59;;;14.88;79.39
69980;BME280;57318;56.232;43.944;2023-07-24T00:59:15;98284.94;;;14.85;79.76
69980;BME280;57318;56.232;43.944;2023-07-24T01:01:41;98287.97;;;14.82;79.56
69980;BME280;57318;56.232;43.944;2023-07-24T01:04:08;98288.97;;;14.80;79.76
69980;BME280;57318;56.232;43.944;2023-07-24T01:06:33;98287.66;;;14.76;80.05
69980;BME280;57318;56.232;43.944;2023-07-24T01:08:59;98289.84;;;14.73;80.28
69980;BME280;57318;56.232;43.944;2023-07-24T01:11:36;98296.22;;;14.72;80.46
69980;BME280;57318;56.232;43.944;2023-07-24T01:14:21;98292.88;;;14.70;80.71
69980;BME280;57318;56.232;43.944;2023-07-24T01:16:50;98285.41;;;14.65;81.01
69980;BME280;57318;56.232;43.944;2023-07-24T01:19:27;98291.13;;;14.62;81.22
69980;BME280;57318;56.232;43.944;2023-07-24T01:22:57;98296.09;;;14.57;81.72
69980;BME280;57318;56.232;43.944;2023-07-24T01:25:30;98294.63;;;14.54;81.79
69980;BME280;57318;56.232;43.944;2023-07-24T01:27:56;98292.63;;;14.56;81.68
69980;BME280;57318;56.232;43.944;2023-07-24T01:30:22;98291.78;;;14.56;81.95
69980;BME280;57318;56.232;43.944;2023-07-24T01:32:48;98291.44;;;14.59;81.93
69980;BME280;57318;56.232;43.944;2023-07-24T01:35:14;98287.91;;;14.58;81.96
69980;BME280;57318;56.232;43.944;2023-07-24T01:37:42;98285.25;;;14.58;82.16
69980;BME280;57318;56.232;43.944;2023-07-24T01:40:09;98286.91;;;14.59;82.12
69980;BME280;57318;56.232;43.944;2023-07-24T01:42:36;98283.09;;;14.62;82.12
69980;BME280;57318;56.232;43.944;2023-07-24T01:45:03;98292.22;;;14.68;81.91
69980;BME280;57318;56.232;43.944;2023-07-24T01:47:32;98294.09;;;14.67;81.63
69980;BME280;57318;56.232;43.944;2023-07-24T01:49:58;98288.03;;;14.73;81.53
69980;BME280;57318;56.232;43.944;2023-07-24T01:52:23;98302.88;;;14.76;81.27
69980;BME280;57318;56.232;43.944;2023-07-24T01:54:49;98293.50;;;14.80;81.10
69980;BME280;57318;56.232;43.944;2023-07-24T01:57:15;98291.47;;;14.82;81.05
69980;BME280;57318;56.232;43.944;2023-07-24T01:59:41;98295.28;;;14.88;80.91
69980;BME280;57318;56.232;43.944;2023-07-24T02:02:06;98294.91;;;14.91;80.60
69980;BME280;57318;56.232;43.944;2023-07-24T02:04:32;98294.38;;;14.95;80.56
69980;BME280;57318;56.232;43.944;2023-07-24T02:06:58;98296.53;;;15.00;80.49
69980;BME280;57318;56.232;43.944;2023-07-24T02:09:23;98305.84;;;15.04;80.06
69980;BME280;57318;56.232;43.944;2023-07-24T02:11:49;98304.13;;;15.11;79.98
69980;BME280;57318;56.232;43.944;2023-07-24T02:14:17;98300.06;;;15.15;79.81
69980;BME280;57318;56.232;43.944;2023-07-24T02:16:43;98299.53;;;15.20;79.77
69980;BME280;57318;56.232;43.944;2023-07-24T02:19:09;98300.81;;;15.24;79.66
69980;BME280;57318;56.232;43.944;2023-07-24T02:21:54;98293.25;;;15.28;79.55
69980;BME280;57318;56.232;43.944;2023-07-24T02:24:20;98296.59;;;15.30;79.36
69980;BME280;57318;56.232;43.944;2023-07-24T02:26:46;98298.91;;;15.33;79.38
69980;BME280;57318;56.232;43.944;2023-07-24T02:29:12;98303.19;;;15.42;79.28
69980;BME280;57318;56.232;43.944;2023-07-24T02:31:38;98302.75;;;15.54;79.02
69980;BME280;57318;56.232;43.944;2023-07-24T02:34:04;98312.53;;;15.61;78.76
69980;BME280;57318;56.232;43.944;2023-07-24T02:36:29;98312.63;;;15.68;78.65
69980;BME280;57318;56.232;43.944;2023-07-24T02:38:55;98318.06;;;15.75;78.52
69980;BME280;57318;56.232;43.944;2023-07-24T02:41:21;98312.72;;;15.75;78.30
69980;BME280;57318;56.232;43.944;2023-07-24T02:43:46;98313.56;;;15.75;78.24
69980;BME280;57318;56.232;43.944;2023-07-24T02:46:12;98313.56;;;15.75;78.39
69980;BME280;57318;56.232;43.944;2023-07-24T02:48:38;98316.63;;;15.72;78.45
69980;BME280;57318;56.232;43.944;2023-07-24T02:51:03;98314.75;;;15.73;78.77
69980;BME280;57318;56.232;43.944;2023-07-24T02:53:29;98316.97;;;15.69;78.88
69980;BME280;57318;56.232;43.944;2023-07-24T02:55:55;98313.81;;;15.65;79.26
69980;BME280;57318;56.232;43.944;2023-07-24T02:58:21;98319.72;;;15.61;79.14
69980;BME280;57318;56.232;43.944;2023-07-24T03:00:46;98318.16;;;15.66;79.47
69980;BME280;57318;56.232;43.944;2023-07-24T03:03:12;98312.53;;;15.61;79.27
69980;BME280;57318;56.232;43.944;2023-07-24T03:05:40;98316.41;;;15.59;79.42
69980;BME280;57318;56.232;43.944;2023-07-24T03:08:06;98310.94;;;15.67;79.47
69980;BME280;57318;56.232;43.944;2023-07-24T03:10:32;98306.75;;;15.87;78.99
69980;BME280;57318;56.232;43.944;2023-07-24T03:12:57;98318.66;;;16.15;78.15
69980;BME280;57318;56.232;43.944;2023-07-24T03:15:23;98321.38;;;16.36;77.14
69980;BME280;57318;56.232;43.944;2023-07-24T03:17:49;98316.94;;;16.58;76.20
69980;BME280;57318;56.232;43.944;2023-07-24T03:20:16;98318.75;;;16.73;75.23
69980;BME280;57318;56.232;43.944;2023-07-24T03:22:42;98320.84;;;16.77;74.96
69980;BME280;57318;56.232;43.944;2023-07-24T03:25:08;98318.59;;;16.81;74.41
69980;BME280;57318;56.232;43.944;2023-07-24T03:27:34;98319.56;;;16.73;74.59
69980;BME280;57318;56.232;43.944;2023-07-24T03:30:00;98314.75;;;16.69;74.96
69980;BME280;57318;56.232;43.944;2023-07-24T03:32:26;98330.28;;;16.73;75.13
69980;BME280;57318;56.232;43.944;2023-07-24T03:34:54;98325.13;;;16.72;74.82
69980;BME280;57318;56.232;43.944;2023-07-24T03:37:20;98324.72;;;16.75;74.76
69980;BME280;57318;56.232;43.944;2023-07-24T03:39:46;98323.56;;;16.63;75.12
69980;BME280;57318;56.232;43.944;2023-07-24T03:42:12;98323.31;;;16.57;75.65
69980;BME280;57318;56.232;43.944;2023-07-24T03:44:41;98312.97;;;16.54;75.97
69980;BME280;57318;56.232;43.944;2023-07-24T03:47:07;98316.28;;;16.56;75.72
69980;BME280;57318;56.232;43.944;2023-07-24T03:49:33;98314.25;;;16.58;75.58
69980;BME280;57318;56.232;43.944;2023-07-24T03:51:59;98302.59;;;16.51;75.93
69980;BME280;57318;56.232;43.944;2023-07-24T03:54:25;98319.44;;;16.45;76.25
69980;BME280;57318;56.232;43.944;2023-07-24T03:56:50;98323.13;;;16.44;76.23
69980;BME280;57318;56.232;43.944;2023-07-24T03:59:16;98324.28;;;16.35;76.67
69980;BME280;57318;56.232;43.944;2023-07-24T04:01:42;98326.97;;;16.35;77.07
69980;BME280;57318;56.232;43.944;2023-07-24T04:04:07;98312.63;;;16.28;77.18
69980;BME280;57318;56.232;43.944;2023-07-24T04:06:33;98323.75;;;16.24;77.41
69980;BME280;57318;56.232;43.944;2023-07-24T04:08:59;98318.75;;;16.21;77.60
69980;BME280;57318;56.232;43.944;2023-07-24T04:11:24;98318.75;;;16.21;77.61
69980;BME280;57318;56.232;43.944;2023-07-24T04:13:50;98325.03;;;16.29;77.44
69980;BME280;57318;56.232;43.944;2023-07-24T04:16:16;98330.91;;;16.39;77.24
69980;BME280;57318;56.232;43.944;2023-07-24T04:18:41;98332.09;;;16.51;76.29
69980;BME280;57318;56.232;43.944;2023-07-24T04:21:07;98326.47;;;16.46;76.48
69980;BME280;57318;56.232;43.944;2023-07-24T04:23:33;98334.22;;;16.41;76.74
69980;BME280;57318;56.232;43.944;2023-07-24T04:25:58;98336.66;;;16.36;76.36
69980;BME280;57318;56.232;43.944;2023-07-24T04:28:24;98326.22;;;16.26;76.65
69980;BME280;57318;56.232;43.944;2023-07-24T04:30:50;98331.31;;;16.21;76.79
69980;BME280;57318;56.232;43.944;2023-07-24T04:33:15;98327.53;;;16.15;77.18
69980;BME280;57318;56.232;43.944;2023-07-24T04:35:41;98328.53;;;16.14;77.46
69980;BME280;57318;56.232;43.944;2023-07-24T04:38:07;98329.75;;;16.12;77.92
69980;BME280;57318;56.232;43.944;2023-07-24T04:40:32;98337.44;;;16.15;78.08
69980;BME280;57318;56.232;43.944;2023-07-24T04:42:58;98329.38;;;16.15;77.81
69980;BME280;57318;56.232;43.944;2023-07-24T04:45:24;98337.41;;;16.30;77.28
69980;BME280;57318;56.232;43.944;2023-07-24T04:47:50;98337.97;;;16.40;76.82
69980;BME280;57318;56.232;43.944;2023-07-24T04:50:15;98341.91;;;16.44;76.71
69980;BME280;57318;56.232;43.944;2023-07-24T04:52:41;98355.22;;;16.37;77.22
69980;BME280;57318;56.232;43.944;2023-07-24T04:55:07;98342.31;;;16.26;77.51
69980;BME280;57318;56.232;43.944;2023-07-24T04:57:32;98354.22;;;16.23;77.99
69980;BME280;57318;56.232;43.944;2023-07-24T04:59:58;98358.69;;;16.16;78.37
69980;BME280;57318;56.232;43.944;2023-07-24T05:02:24;98358.56;;;16.10;78.73
69980;BME280;57318;56.232;43.944;2023-07-24T05:04:49;98351.75;;;16.07;78.87
69980;BME280;57318;56.232;43.944;2023-07-24T05:07:15;98354.50;;;16.14;78.55
69980;BME280;57318;56.232;43.944;2023-07-24T05:09:41;98357.09;;;16.22;77.70
69980;BME280;57318;56.232;43.944;2023-07-24T05:12:07;98357.84;;;16.31;77.30
69980;BME280;57318;56.232;43.944;2023-07-24T05:14:33;98358.22;;;16.28;75.82
69980;BME280;57318;56.232;43.944;2023-07-24T05:16:59;98358.84;;;16.30;75.93
69980;BME280;57318;56.232;43.944;2023-07-24T05:19:25;98369.75;;;16.43;75.37
69980;BME280;57318;56.232;43.944;2023-07-24T05:21:50;98364.09;;;16.53;74.72
69980;BME280;57318;56.232;43.944;2023-07-24T05:24:16;98363.78;;;16.63;73.91
69980;BME280;57318;56.232;43.944;2023-07-24T05:26:42;98365.22;;;16.80;73.11
69980;BME280;57318;56.232;43.944;2023-07-24T05:29:07;98363.22;;;17.04;72.13
69980;BME280;57318;56.232;43.944;2023-07-24T05:31:36;98359.75;;;17.25;70.74
69980;BME280;57318;56.232;43.944;2023-07-24T05:34:02;98357.16;;;17.38;70.23
69980;BME280;57318;56.232;43.944;2023-07-24T05:36:29;98360.03;;;17.58;69.80
69980;BME280;57318;56.232;43.944;2023-07-24T05:38:55;98353.47;;;17.89;68.23
69980;BME280;57318;56.232;43.944;2023-07-24T05:41:21;98364.84;;;18.26;66.35
69980;BME280;57318;56.232;43.944;2023-07-24T05:43:47;98364.56;;;18.63;65.24
69980;BME280;57318;56.232;43.944;2023-07-24T05:46:12;98366.81;;;19.07;63.09
69980;BME280;57318;56.232;43.944;2023-07-24T05:48:38;98365.63;;;19.37;61.18
69980;BME280;57318;56.232;43.944;2023-07-24T05:51:04;98362.50;;;19.33;60.91
69980;BME280;57318;56.232;43.944;2023-07-24T05:53:29;98355.66;;;19.24;61.02
69980;BME280;57318;56.232;43.944;2023-07-24T05:56:01;98372.22;;;19.07;61.76
69980;BME280;57318;56.232;43.944;2023-07-24T05:58:28;98369.66;;;18.92;61.78
69980;BME280;57318;56.232;43.944;2023-07-24T06:00:54;98378.09;;;18.83;60.95
69980;BME280;57318;56.232;43.944;2023-07-24T06:03:21;98374.47;;;19.04;60.50
69980;BME280;57318;56.232;43.944;2023-07-24T06:05:51;98372.84;;;19.43;59.54
69980;BME280;57318;56.232;43.944;2023-07-24T06:08:18;98369.78;;;19.93;57.81
69980;BME280;57318;56.232;43.944;2023-07-24T06:10:46;98373.81;;;20.35;56.15
69980;BME280;57318;56.232;43.944;2023-07-24T06:13:12;98374.56;;;20.63;55.04
69980;BME280;57318;56.232;43.944;2023-07-24T06:15:37;98371.47;;;20.52;54.77
69980;BME280;57318;56.232;43.944;2023-07-24T06:18:03;98374.50;;;20.17;55.71
69980;BME280;57318;56.232;43.944;2023-07-24T06:20:29;98375.34;;;19.98;56.65
69980;BME280;57318;56.232;43.944;2023-07-24T06:22:54;98376.78;;;20.21;56.63
69980;BME280;57318;56.232;43.944;2023-07-24T06:25:20;98374.66;;;20.36;55.96
69980;BME280;57318;56.232;43.944;2023-07-24T06:27:46;98376.22;;;20.64;55.89
69980;BME280;57318;56.232;43.944;2023-07-24T06:30:11;98391.06;;;20.93;54.83
69980;BME280;57318;56.232;43.944;2023-07-24T06:32:37;98388.97;;;20.95;54.33
69980;BME280;57318;56.232;43.944;2023-07-24T06:35:03;98390.53;;;21.16;53.16
69980;BME280;57318;56.232;43.944;2023-07-24T06:37:29;98378.31;;;21.39;52.32
69980;BME280;57318;56.232;43.944;2023-07-24T06:39:55;98390.09;;;21.19;52.26
69980;BME280;57318;56.232;43.944;2023-07-24T06:42:21;98384.22;;;20.90;53.19
69980;BME280;57318;56.232;43.944;2023-07-24T06:44:46;98379.44;;;20.93;54.06
69980;BME280;57318;56.232;43.944;2023-07-24T06:47:12;98377.78;;;21.23;53.81
69980;BME280;57318;56.232;43.944;2023-07-24T06:49:38;98390.59;;;22.54;50.18
69980;BME280;57318;56.232;43.944;2023-07-24T06:52:04;98389.06;;;23.68;47.02
69980;BME280;57318;56.232;43.944;2023-07-24T06:54:29;98398.03;;;24.39;45.82
69980;BME280;57318;56.232;43.944;2023-07-24T06:56:55;98393.69;;;24.14;45.49
69980;BME280;57318;56.232;43.944;2023-07-24T06:59:23;98410.34;;;24.06;45.25
69980;BME280;57318;56.232;43.944;2023-07-24T07:01:48;98398.94;;;23.62;45.97
69980;BME280;57318;56.232;43.944;2023-07-24T07:04:14;98402.94;;;22.50;48.61
69980;BME280;57318;56.232;43.944;2023-07-24T07:06:40;98395.97;;;21.73;50.30
69980;BME280;57318;56.232;43.944;2023-07-24T07:09:05;98404.28;;;21.72;51.01
69980;BME280;57318;56.232;43.944;2023-07-24T07:11:32;98398.38;;;23.72;46.33
69980;BME280;57318;56.232;43.944;2023-07-24T07:13:57;98405.06;;;25.45;41.88
69980;BME280;57318;56.232;43.944;2023-07-24T07:16:23;98402.06;;;27.15;38.42
69980;BME280;57318;56.232;43.944;2023-07-24T07:18:49;98398.41;;;28.92;34.75
69980;BME280;57318;56.232;43.944;2023-07-24T07:21:14;98410.09;;;30.02;31.83
69980;BME280;57318;56.232;43.944;2023-07-24T07:23:40;98397.78;;;30.90;30.73
69980;BME280;57318;56.232;43.944;2023-07-24T07:26:06;98404.22;;;31.99;28.80
69980;BME280;57318;56.232;43.944;2023-07-24T07:28:31;98407.19;;;32.81;26.88
69980;BME280;57318;56.232;43.944;2023-07-24T07:30:57;98403.97;;;33.17;27.12
69980;BME280;57318;56.232;43.944;2023-07-24T07:33:23;98420.81;;;34.19;25.39
69980;BME280;57318;56.232;43.944;2023-07-24T07:35:50;98413.84;;;34.41;24.98
69980;BME280;57318;56.232;43.944;2023-07-24T07:38:15;98417.31;;;34.74;24.12
69980;BME280;57318;56.232;43.944;2023-07-24T07:40:41;98405.88;;;34.39;24.40
69980;BME280;57318;56.232;43.944;2023-07-24T07:43:06;98396.78;;;34.39;24.78
69980;BME280;57318;56.232;43.944;2023-07-24T07:45:32;98397.41;;;34.77;24.56
69980;BME280;57318;56.232;43.944;2023-07-24T07:47:58;98399.34;;;34.49;24.64
69980;BME280;57318;56.232;43.944;2023-07-24T07:50:23;98398.63;;;34.57;24.56
69980;BME280;57318;56.232;43.944;2023-07-24T07:52:50;98401.09;;;33.98;24.77
69980;BME280;57318;56.232;43.944;2023-07-24T07:55:16;98397.91;;;33.20;25.51
69980;BME280;57318;56.232;43.944;2023-07-24T07:57:42;98393.75;;;33.22;25.69
69980;BME280;57318;56.232;43.944;2023-07-24T08:00:08;98389.31;;;31.76;27.92
69980;BME280;57318;56.232;43.944;2023-07-24T08:02:36;98387.53;;;32.44;27.10
69980;BME280;57318;56.232;43.944;2023-07-24T08:05:07;98393.97;;;33.26;26.08
69980;BME280;57318;56.232;43.944;2023-07-24T08:07:34;98386.22;;;33.28;25.58
69980;BME280;57318;56.232;43.944;2023-07-24T08:09:59;98385.94;;;33.49;24.73
69980;BME280;57318;56.232;43.944;2023-07-24T08:12:25;98394.66;;;34.36;22.75
69980;BME280;57318;56.232;43.944;2023-07-24T08:14:50;98394.19;;;33.49;23.80
69980;BME280;57318;56.232;43.944;2023-07-24T08:17:16;98392.25;;;33.30;24.48
69980;BME280;57318;56.232;43.944;2023-07-24T08:19:42;98387.41;;;33.93;23.85
69980;BME280;57318;56.232;43.944;2023-07-24T08:22:08;98392.72;;;34.03;22.57
69980;BME280;57318;56.232;43.944;2023-07-24T08:24:34;98395.25;;;34.46;22.50
69980;BME280;57318;56.232;43.944;2023-07-24T08:27:01;98385.44;;;33.60;23.28
69980;BME280;57318;56.232;43.944;2023-07-24T08:29:27;98388.81;;;33.90;22.93
69980;BME280;57318;56.232;43.944;2023-07-24T08:31:52;98389.63;;;34.24;22.05
69980;BME280;57318;56.232;43.944;2023-07-24T08:34:18;98391.97;;;34.44;22.16
69980;BME280;57318;56.232;43.944;2023-07-24T08:36:44;98391.28;;;34.80;21.77
69980;BME280;57318;56.232;43.944;2023-07-24T08:39:09;98388.44;;;35.58;20.65
69980;BME280;57318;56.232;43.944;2023-07-24T08:41:37;98391.41;;;36.56;19.53
69980;BME280;57318;56.232;43.944;2023-07-24T08:44:07;98383.28;;;37.35;18.59
69980;BME280;57318;56.232;43.944;2023-07-24T08:46:37;98392.88;;;37.02;18.75
69980;BME280;57318;56.232;43.944;2023-07-24T08:49:04;98393.16;;;36.43;19.30
69980;BME280;57318;56.232;43.944;2023-07-24T08:51:30;98390.09;;;36.13;19.66
69980;BME280;57318;56.232;43.944;2023-07-24T08:53:57;98392.00;;;35.59;20.07
69980;BME280;57318;56.232;43.944;2023-07-24T08:56:23;98394.72;;;35.50;20.66
69980;BME280;57318;56.232;43.944;2023-07-24T08:58:49;98393.88;;;35.13;20.32
69980;BME280;57318;56.232;43.944;2023-07-24T09:01:15;98382.63;;;35.46;20.20
69980;BME280;57318;56.232;43.944;2023-07-24T09:03:41;98379.38;;;35.67;20.33
69980;BME280;57318;56.232;43.944;2023-07-24T09:06:07;98381.41;;;36.78;18.94
69980;BME280;57318;56.232;43.944;2023-07-24T09:08:37;98377.72;;;37.61;17.93
69980;BME280;57318;56.232;43.944;2023-07-24T09:11:04;98390.06;;;37.99;17.31
69980;BME280;57318;56.232;43.944;2023-07-24T09:13:30;98373.63;;;37.85;18.04
69980;BME280;57318;56.232;43.944;2023-07-24T09:15:58;98389.94;;;37.78;18.55
69980;BME280;57318;56.232;43.944;2023-07-24T09:18:25;98375.75;;;37.88;18.34
69980;BME280;57318;56.232;43.944;2023-07-24T09:20:50;98385.28;;;38.25;17.27
69980;BME280;57318;56.232;43.944;2023-07-24T09:23:25;98388.25;;;38.12;17.67
69980;BME280;57318;56.232;43.944;2023-07-24T09:25:51;98380.56;;;38.08;17.27
69980;BME280;57318;56.232;43.944;2023-07-24T09:28:17;98370.78;;;38.11;17.62
69980;BME280;57318;56.232;43.944;2023-07-24T09:30:55;98372.09;;;36.25;19.48
69980;BME280;57318;56.232;43.944;2023-07-24T09:33:38;98377.13;;;35.91;19.18
69980;BME280;57318;56.232;43.944;2023-07-24T09:36:07;98361.88;;;36.83;18.29
69980;BME280;57318;56.232;43.944;2023-07-24T09:38:38;98379.44;;;38.09;17.30
69980;BME280;57318;56.232;43.944;2023-07-24T09:41:05;98369.25;;;38.91;16.39
69980;BME280;57318;56.232;43.944;2023-07-24T09:43:32;98369.47;;;40.03;15.55
69980;BME280;57318;56.232;43.944;2023-07-24T09:46:01;98382.13;;;40.26;15.14
69980;BME280;57318;56.232;43.944;2023-07-24T09:48:30;98367.44;;;39.92;15.94
69980;BME280;57318;56.232;43.944;2023-07-24T09:50:57;98359.81;;;40.01;15.90
69980;BME280;57318;56.232;43.944;2023-07-24T09:53:55;98359.56;;;40.64;15.35
69980;BME280;57318;56.232;43.944;2023-07-24T09:56:22;98371.63;;;39.85;15.62
69980;BME280;57318;56.232;43.944;2023-07-24T09:58:49;98354.13;;;39.30;16.15
69980;BME280;57318;56.232;43.944;2023-07-24T10:01:19;98353.78;;;38.60;16.34
69980;BME280;57318;56.232;43.944;2023-07-24T10:03:47;98353.19;;;37.98;17.11
69980;BME280;57318;56.232;43.944;2023-07-24T10:06:15;98351.28;;;38.37;17.03
69980;BME280;57318;56.232;43.944;2023-07-24T10:08:41;98353.09;;;37.86;17.17
69980;BME280;57318;56.232;43.944;2023-07-24T10:11:12;98344.94;;;37.63;17.93
69980;BME280;57318;56.232;43.944;2023-07-24T10:13:39;98356.56;;;38.60;16.75
69980;BME280;57318;56.232;43.944;2023-07-24T10:16:05;98348.22;;;37.56;17.63
69980;BME280;57318;56.232;43.944;2023-07-24T10:18:34;98341.09;;;36.45;18.56
69980;BME280;57318;56.232;43.944;2023-07-24T10:21:03;98350.16;;;37.21;17.99
69980;BME280;57318;56.232;43.944;2023-07-24T10:23:29;98339.63;;;37.23;17.62
69980;BME280;57318;56.232;43.944;2023-07-24T10:25:56;98346.13;;;36.03;18.70
69980;BME280;57318;56.232;43.944;2023-07-24T10:28:47;98336.94;;;34.53;20.30
69980;BME280;57318;56.232;43.944;2023-07-24T10:31:22;98334.47;;;34.65;20.56
69980;BME280;57318;56.232;43.944;2023-07-24T10:33:49;98340.97;;;35.56;20.26
69980;BME280;57318;56.232;43.944;2023-07-24T10:36:20;98341.28;;;36.49;18.40
69980;BME280;57318;56.232;43.944;2023-07-24T10:38:53;98339.19;;;36.23;18.92
69980;BME280;57318;56.232;43.944;2023-07-24T10:41:19;98333.63;;;33.82;20.94
69980;BME280;57318;56.232;43.944;2023-07-24T10:43:49;98324.50;;;33.81;21.36
69980;BME280;57318;56.232;43.944;2023-07-24T10:46:17;98329.78;;;34.38;20.84
69980;BME280;57318;56.232;43.944;2023-07-24T10:48:46;98322.72;;;32.62;22.65
69980;BME280;57318;56.232;43.944;2023-07-24T10:51:12;98331.22;;;33.75;21.32
69980;BME280;57318;56.232;43.944;2023-07-24T10:53:49;98327.03;;;34.24;21.24
69980;BME280;57318;56.232;43.944;2023-07-24T10:56:16;98325.81;;;32.99;22.40
69980;BME280;57318;56.232;43.944;2023-07-24T10:58:42;98319.56;;;32.93;22.68
69980;BME280;57318;56.232;43.944;2023-07-24T11:01:08;98321.94;;;31.84;24.02
69980;BME280;57318;56.232;43.944;2023-07-24T11:03:36;98328.19;;;32.86;22.82
69980;BME280;57318;56.232;43.944;2023-07-24T11:06:03;98333.25;;;34.58;21.30
69980;BME280;57318;56.232;43.944;2023-07-24T11:08:29;98325.53;;;36.18;19.34
69980;BME280;57318;56.232;43.944;2023-07-24T11:10:57;98326.28;;;37.34;17.82
69980;BME280;57318;56.232;43.944;2023-07-24T11:13:25;98327.84;;;36.91;17.53
69980;BME280;57318;56.232;43.944;2023-07-24T11:15:52;98314.59;;;36.53;18.01
69980;BME280;57318;56.232;43.944;2023-07-24T11:18:18;98317.66;;;36.03;18.17
69980;BME280;57318;56.232;43.944;2023-07-24T11:20:51;98313.97;;;36.16;18.41
69980;BME280;57318;56.232;43.944;2023-07-24T11:23:17;98313.31;;;36.59;18.17
69980;BME280;57318;56.232;43.944;2023-07-24T11:25:44;98315.16;;;37.08;17.51
69980;BME280;57318;56.232;43.944;2023-07-24T11:28:11;98306.28;;;36.53;18.04
69980;BME280;57318;56.232;43.944;2023-07-24T11:30:39;98311.00;;;36.04;18.75
69980;BME280;57318;56.232;43.944;2023-07-24T11:33:06;98308.16;;;37.01;18.06
69980;BME280;57318;56.232;43.944;2023-07-24T11:35:33;98305.97;;;37.77;17.93
69980;BME280;57318;56.232;43.944;2023-07-24T11:38:00;98312.78;;;36.48;17.90
69980;BME280;57318;56.232;43.944;2023-07-24T11:40:37;98301.66;;;34.78;19.81
69980;BME280;57318;56.232;43.944;2023-07-24T11:43:04;98296.91;;;34.92;19.32
69980;BME280;57318;56.232;43.944;2023-07-24T11:45:30;98291.13;;;35.39;19.63
69980;BME280;57318;56.232;43.944;2023-07-24T11:47:56;98303.84;;;35.26;19.71
69980;BME280;57318;56.232;43.944;2023-07-24T11:50:23;98295.47;;;34.95;20.59
69980;BME280;57318;56.232;43.944;2023-07-24T11:52:50;98306.91;;;34.24;21.42
69980;BME280;57318;56.232;43.944;2023-07-24T11:55:30;98286.34;;;32.46;22.46
69980;BME280;57318;56.232;43.944;2023-07-24T12:00:23;98283.63;;;29.79;25.68
69980;BME280;57318;56.232;43.944;2023-07-24T12:02:49;98283.03;;;28.90;27.11
69980;BME280;57318;56.232;43.944;2023-07-24T12:05:15;98267.34;;;28.49;28.25
69980;BME280;57318;56.232;43.944;2023-07-24T12:07:43;98269.44;;;27.79;29.00
69980;BME280;57318;56.232;43.944;2023-07-24T12:10:12;98257.97;;;26.74;30.85
69980;BME280;57318;56.232;43.944;2023-07-24T12:12:47;98265.03;;;26.26;31.26
69980;BME280;57318;56.232;43.944;2023-07-24T12:15:14;98251.44;;;27.03;30.02
69980;BME280;57318;56.232;43.944;2023-07-24T12:17:40;98266.34;;;28.07;28.49
69980;BME280;57318;56.232;43.944;2023-07-24T12:20:07;98271.00;;;27.64;28.72
69980;BME280;57318;56.232;43.944;2023-07-24T12:22:38;98275.91;;;27.62;29.66
69980;BME280;57318;56.232;43.944;2023-07-24T12:25:05;98263.88;;;26.93;31.33
69980;BME280;57318;56.232;43.944;2023-07-24T12:27:33;98267.09;;;26.85;31.55
69980;BME280;57318;56.232;43.944;2023-07-24T12:29:59;98263.34;;;28.09;30.53
69980;BME280;57318;56.232;43.944;2023-07-24T12:32:26;98263.91;;;29.41;28.09
69980;BME280;57318;56.232;43.944;2023-07-24T12:34:52;98265.53;;;29.73;27.38
69980;BME280;57318;56.232;43.944;2023-07-24T12:37:19;98269.59;;;28.78;28.89
69980;BME280;57318;56.232;43.944;2023-07-24T12:39:46;98258.13;;;28.02;29.94
69980;BME280;57318;56.232;43.944;2023-07-24T12:42:12;98251.16;;;27.04;31.84
69980;BME280;57318;56.232;43.944;2023-07-24T12:44:38;98251.91;;;26.45;32.38
69980;BME280;57318;56.232;43.944;2023-07-24T12:47:04;98245.75;;;26.05;33.82
69980;BME280;57318;56.232;43.944;2023-07-24T12:49:30;98243.78;;;25.84;33.61
69980;BME280;57318;56.232;43.944;2023-07-24T12:51:56;98241.44;;;26.86;32.48